Time;durP1;ratioP1;P1;durP2;ratioP2;P2;SDS_P1;SDS_P2;PMS_P1;PMS_P2;Temp;Humidity;BMP_temperature;BMP_pressure;BME280_temperature;BME280_humidity;BME280_pressure;Samples;Min_cycle;Max_cycle;Signal;HPM_P1;HPM_P2
2022/08/04 00:02:08;;;;;;;;;;;20.10;99.90;;;;;;5033215;28;19948;-74
2022/08/04 00:04:57;;;;;;;;;;;20.00;99.90;;;;;;5032839;28;19924;-74
2022/08/04 00:07:40;;;;;;;;;;;20.00;99.90;;;;;;5034272;28;19921;-73
2022/08/04 00:10:06;;;;;;;;;;;20.10;99.90;;;;;;5032854;28;20012;-72
2022/08/04 00:12:35;;;;;;;;;;;20.00;99.90;;;;;;5035865;28;20005;-74
2022/08/04 00:15:01;;;;;;;;;;;19.90;99.90;;;;;;5033345;28;19913;-73
2022/08/04 00:17:53;;;;;;;;;;;19.90;99.90;;;;;;5045768;28;19949;-73
2022/08/04 00:20:19;;;;;;;;;;;19.90;99.90;;;;;;5023679;28;19975;-73
2022/08/04 00:22:46;;;;;;;;;;;19.90;99.90;;;;;;5034181;28;19913;-73
2022/08/04 00:25:15;;;;;;;;;;;19.90;99.90;;;;;;5047205;28;20292;-73
2022/08/04 00:27:40;;;;;;;;;;;19.90;99.90;;;;;;5032461;28;19932;-72
2022/08/04 00:30:06;;;;;;;;;;;19.90;99.90;;;;;;5033886;28;19913;-72
2022/08/04 00:32:32;;;;;;;;;;;20.00;99.90;;;;;;5034424;28;19954;-74
2022/08/04 00:34:58;;;;;;;;;;;20.00;99.90;;;;;;5033639;28;20279;-72
2022/08/04 00:37:24;;;;;;;;;;;20.10;99.90;;;;;;5033132;28;19939;-72
2022/08/04 00:39:53;;;;;;;;;;;20.20;99.90;;;;;;5032799;28;19956;-71
2022/08/04 00:42:37;;;;;;;;;;;20.20;99.90;;;;;;5022241;28;20220;-72
2022/08/04 00:45:18;;;;;;;;;;;20.20;99.90;;;;;;5028513;28;19968;-72
2022/08/04 00:48:19;;;;;;;;;;;20.20;99.90;;;;;;5032637;28;20197;-71
2022/08/04 00:50:45;;;;;;;;;;;20.20;99.90;;;;;;4960114;28;19914;-71
2022/08/04 00:53:29;;;;;;;;;;;20.10;99.90;;;;;;5015101;28;19913;-71
2022/08/04 00:56:15;;;;;;;;;;;20.10;99.90;;;;;;5024113;28;19924;-72
2022/08/04 00:58:47;;;;;;;;;;;20.00;99.90;;;;;;5031768;28;19929;-72
2022/08/04 01:01:21;;;;;;;;;;;20.00;99.90;;;;;;5034088;28;19963;-72
2022/08/04 01:03:55;;;;;;;;;;;19.80;99.90;;;;;;5033585;28;19940;-73
2022/08/04 01:06:21;;;;;;;;;;;19.80;99.90;;;;;;5034322;28;20315;-72
2022/08/04 01:08:59;;;;;;;;;;;19.80;99.90;;;;;;5031251;28;19913;-71
2022/08/04 01:11:28;;;;;;;;;;;19.70;99.90;;;;;;5031774;28;19942;-71
2022/08/04 01:13:53;;;;;;;;;;;19.70;99.90;;;;;;5033553;28;19982;-71
2022/08/04 01:16:21;;;;;;;;;;;19.70;99.90;;;;;;5034206;28;20308;-71
2022/08/04 01:19:06;;;;;;;;;;;19.70;99.90;;;;;;5031682;28;19970;-71
2022/08/04 01:21:49;;;;;;;;;;;19.70;99.90;;;;;;5033932;28;19913;-71
2022/08/04 01:24:28;;;;;;;;;;;19.70;99.90;;;;;;5033204;28;20368;-71
2022/08/04 01:27:29;;;;;;;;;;;19.70;99.90;;;;;;5034345;28;19924;-71
2022/08/04 01:29:56;;;;;;;;;;;19.70;99.90;;;;;;4968449;28;19918;-72
2022/08/04 01:32:25;;;;;;;;;;;19.70;99.90;;;;;;5021621;28;19917;-72
2022/08/04 01:34:52;;;;;;;;;;;19.80;99.90;;;;;;5033259;28;19971;-72
2022/08/04 01:37:32;;;;;;;;;;;19.70;99.90;;;;;;5033954;28;19917;-71
2022/08/04 01:40:03;;;;;;;;;;;19.80;99.90;;;;;;5032311;28;20040;-71
2022/08/04 01:42:32;;;;;;;;;;;19.80;99.90;;;;;;5034044;28;20251;-72
2022/08/04 01:44:59;;;;;;;;;;;19.80;99.90;;;;;;5033256;28;19909;-71
2022/08/04 01:47:27;;;;;;;;;;;19.80;99.90;;;;;;5033758;28;19910;-71
2022/08/04 01:49:53;;;;;;;;;;;19.80;99.90;;;;;;5028761;28;20035;-72
2022/08/04 01:52:19;;;;;;;;;;;19.80;99.90;;;;;;5032598;28;20023;-72
2022/08/04 01:54:46;;;;;;;;;;;19.80;99.90;;;;;;5036279;28;20350;-72
2022/08/04 01:57:13;;;;;;;;;;;19.70;99.90;;;;;;5037889;28;20271;-71
2022/08/04 01:59:39;;;;;;;;;;;19.70;99.90;;;;;;5034439;28;19925;-71
2022/08/04 02:02:05;;;;;;;;;;;19.70;99.90;;;;;;5034715;28;19912;-72
2022/08/04 02:04:30;;;;;;;;;;;19.70;99.90;;;;;;5036779;28;20023;-71
2022/08/04 02:06:56;;;;;;;;;;;19.70;99.90;;;;;;5036609;28;20275;-72
2022/08/04 02:09:37;;;;;;;;;;;19.70;99.90;;;;;;5036634;28;20015;-71
2022/08/04 02:12:02;;;;;;;;;;;19.70;99.90;;;;;;5024761;28;19980;-72
2022/08/04 02:14:42;;;;;;;;;;;19.70;99.90;;;;;;5040701;28;20231;-72
2022/08/04 02:17:27;;;;;;;;;;;19.80;99.90;;;;;;5031121;28;19968;-71
2022/08/04 02:20:05;;;;;;;;;;;19.80;99.90;;;;;;5024479;28;19921;-71
2022/08/04 02:22:39;;;;;;;;;;;19.90;99.90;;;;;;5036325;28;19936;-71
2022/08/04 02:25:08;;;;;;;;;;;19.80;99.90;;;;;;5036634;28;19919;-71
2022/08/04 02:27:39;;;;;;;;;;;19.80;99.90;;;;;;5036182;28;19948;-71
2022/08/04 02:30:05;;;;;;;;;;;19.80;99.90;;;;;;5037083;28;19917;-72
2022/08/04 02:32:38;;;;;;;;;;;19.80;99.90;;;;;;5038847;28;19915;-72
2022/08/04 02:35:07;;;;;;;;;;;19.70;99.90;;;;;;5036747;28;19913;-71
2022/08/04 02:37:32;;;;;;;;;;;19.80;99.90;;;;;;5036632;28;19963;-72
2022/08/04 02:40:00;;;;;;;;;;;19.70;99.90;;;;;;5035030;28;19921;-72
2022/08/04 02:42:27;;;;;;;;;;;19.70;99.90;;;;;;5035299;28;20320;-72
2022/08/04 02:44:55;;;;;;;;;;;19.70;99.90;;;;;;5035306;28;20236;-73
2022/08/04 02:47:23;;;;;;;;;;;19.70;99.90;;;;;;5036287;28;19913;-73
2022/08/04 02:49:50;;;;;;;;;;;19.80;99.90;;;;;;5020756;28;19914;-73
2022/08/04 02:52:17;;;;;;;;;;;19.70;99.90;;;;;;5035535;28;19917;-72
2022/08/04 02:54:43;;;;;;;;;;;19.60;99.90;;;;;;5035857;28;19954;-73
2022/08/04 02:57:11;;;;;;;;;;;19.70;99.90;;;;;;5035963;28;19939;-73
2022/08/04 02:59:55;;;;;;;;;;;19.60;99.90;;;;;;5036323;28;20218;-72
2022/08/04 03:02:27;;;;;;;;;;;19.60;99.90;;;;;;5031398;28;19917;-73
2022/08/04 03:05:22;;;;;;;;;;;19.60;99.90;;;;;;5033311;28;19960;-73
2022/08/04 03:07:50;;;;;;;;;;;19.60;99.90;;;;;;5026625;28;20331;-73
2022/08/04 03:10:20;;;;;;;;;;;19.70;99.90;;;;;;5035464;28;19917;-73
2022/08/04 03:12:45;;;;;;;;;;;19.60;99.90;;;;;;5035818;28;19917;-74
2022/08/04 03:15:20;;;;;;;;;;;19.70;99.90;;;;;;5034709;28;20315;-74
2022/08/04 03:18:13;;;;;;;;;;;19.70;99.90;;;;;;5026772;28;20346;-73
2022/08/04 03:20:57;;;;;;;;;;;19.60;99.90;;;;;;5033409;28;19920;-75
2022/08/04 03:23:41;;;;;;;;;;;19.70;99.90;;;;;;5035331;28;19921;-73
2022/08/04 03:26:23;;;;;;;;;;;19.70;99.90;;;;;;5035811;28;20312;-74
2022/08/04 03:29:21;;;;;;;;;;;19.70;99.90;;;;;;5023000;28;19910;-74
2022/08/04 03:32:05;;;;;;;;;;;19.70;99.90;;;;;;5011728;28;20308;-77
2022/08/04 03:34:34;;;;;;;;;;;19.70;99.90;;;;;;5040221;28;19919;-73
2022/08/04 03:37:02;;;;;;;;;;;19.70;99.90;;;;;;5041746;28;20737;-72
2022/08/04 03:39:54;;;;;;;;;;;19.90;99.90;;;;;;5053651;28;19913;-73
2022/08/04 03:42:57;;;;;;;;;;;19.90;99.90;;;;;;5032089;28;19955;-74
2022/08/04 03:45:23;;;;;;;;;;;20.00;99.90;;;;;;4960271;28;19915;-73
2022/08/04 03:48:12;;;;;;;;;;;20.00;99.90;;;;;;4961759;28;19914;-74
2022/08/04 03:50:40;;;;;;;;;;;20.00;99.90;;;;;;5010027;28;19956;-76
2022/08/04 03:53:23;;;;;;;;;;;19.90;99.90;;;;;;5044890;28;20010;-74
2022/08/04 03:55:52;;;;;;;;;;;19.90;99.90;;;;;;5036453;28;19921;-74
2022/08/04 03:58:26;;;;;;;;;;;20.00;99.90;;;;;;5040406;28;19983;-76
2022/08/04 04:01:11;;;;;;;;;;;19.90;99.90;;;;;;5047505;28;19909;-73
2022/08/04 04:03:47;;;;;;;;;;;20.00;99.90;;;;;;5057974;28;20308;-76
2022/08/04 04:06:13;;;;;;;;;;;20.00;99.90;;;;;;5046639;28;20625;-71
2022/08/04 04:08:49;;;;;;;;;;;20.00;99.90;;;;;;5036515;28;19948;-78
2022/08/04 04:11:36;;;;;;;;;;;19.90;99.90;;;;;;5030116;28;19925;-76
2022/08/04 04:14:10;;;;;;;;;;;19.80;99.90;;;;;;5032801;28;19917;-75
2022/08/04 04:16:42;;;;;;;;;;;19.80;99.90;;;;;;5034564;28;19959;-77
2022/08/04 04:19:37;;;;;;;;;;;19.70;99.90;;;;;;5032306;28;20305;-73
2022/08/04 04:22:09;;;;;;;;;;;19.70;99.90;;;;;;5024859;28;19913;-72
2022/08/04 04:24:47;;;;;;;;;;;19.60;99.90;;;;;;5033916;28;19909;-73
2022/08/04 04:27:16;;;;;;;;;;;19.70;99.90;;;;;;5047238;28;20194;-74
2022/08/04 04:30:00;;;;;;;;;;;19.60;99.90;;;;;;5031073;28;19913;-73
2022/08/04 04:32:41;;;;;;;;;;;19.70;99.90;;;;;;5034409;28;19916;-74
2022/08/04 04:35:33;;;;;;;;;;;19.70;99.90;;;;;;5034107;28;20304;-73
2022/08/04 04:38:17;;;;;;;;;;;19.90;99.90;;;;;;5031224;28;19917;-73
2022/08/04 04:41:18;;;;;;;;;;;19.90;99.90;;;;;;5030603;28;19917;-74
2022/08/04 04:43:56;;;;;;;;;;;20.00;99.90;;;;;;5005312;28;20275;-74
2022/08/04 04:46:21;;;;;;;;;;;20.00;99.90;;;;;;5031121;28;19909;-72
2022/08/04 04:49:00;;;;;;;;;;;20.10;99.90;;;;;;5034262;28;20028;-72
2022/08/04 04:51:35;;;;;;;;;;;20.20;99.90;;;;;;5033924;28;20311;-75
2022/08/04 04:54:24;;;;;;;;;;;20.20;99.90;;;;;;5022845;28;19917;-73
2022/08/04 04:56:52;;;;;;;;;;;20.20;99.90;;;;;;5016282;28;19917;-73
2022/08/04 04:59:22;;;;;;;;;;;20.30;99.90;;;;;;5033827;28;20008;-75
2022/08/04 05:01:48;;;;;;;;;;;20.30;99.90;;;;;;5033180;28;19917;-73
2022/08/04 05:04:16;;;;;;;;;;;20.30;99.90;;;;;;5032320;28;20335;-75
2022/08/04 05:07:00;;;;;;;;;;;20.20;99.90;;;;;;5033215;28;19920;-75
2022/08/04 05:09:29;;;;;;;;;;;20.20;99.90;;;;;;5038892;28;19959;-78
2022/08/04 05:11:54;;;;;;;;;;;20.20;99.90;;;;;;5032107;28;19920;-77
2022/08/04 05:14:26;;;;;;;;;;;20.30;99.90;;;;;;5033473;28;19921;-76
2022/08/04 05:17:01;;;;;;;;;;;20.30;99.90;;;;;;5033159;28;19921;-74
2022/08/04 05:19:27;;;;;;;;;;;20.40;99.90;;;;;;5033721;28;19921;-76
2022/08/04 05:21:58;;;;;;;;;;;20.40;99.90;;;;;;5032692;28;19921;-73
2022/08/04 05:24:26;;;;;;;;;;;20.50;99.90;;;;;;5028337;28;19944;-72
2022/08/04 05:26:53;;;;;;;;;;;20.50;99.90;;;;;;5033785;28;19971;-74
2022/08/04 05:29:41;;;;;;;;;;;20.60;99.90;;;;;;5040412;28;19935;-74
2022/08/04 05:32:12;;;;;;;;;;;20.70;99.90;;;;;;5036125;28;20395;-77
2022/08/04 05:34:39;;;;;;;;;;;20.70;99.90;;;;;;5040569;28;19996;-75
2022/08/04 05:37:09;;;;;;;;;;;20.80;99.90;;;;;;5039883;28;19909;-73
2022/08/04 05:39:37;;;;;;;;;;;20.80;99.90;;;;;;5046624;28;20336;-72
2022/08/04 05:42:03;;;;;;;;;;;20.90;99.90;;;;;;5042492;28;20590;-71
2022/08/04 05:44:30;;;;;;;;;;;21.00;99.90;;;;;;5047184;28;19921;-71
2022/08/04 05:46:56;;;;;;;;;;;21.00;99.90;;;;;;5038241;28;19942;-81
2022/08/04 05:49:23;;;;;;;;;;;21.00;99.90;;;;;;5049657;28;19940;-72
2022/08/04 05:51:49;;;;;;;;;;;21.10;99.90;;;;;;5037317;28;19917;-71
2022/08/04 05:54:16;;;;;;;;;;;21.10;99.90;;;;;;5049946;28;19919;-72
2022/08/04 05:56:42;;;;;;;;;;;21.10;99.90;;;;;;5042753;28;20326;-77
2022/08/04 05:59:09;;;;;;;;;;;21.10;99.90;;;;;;5042967;28;19952;-71
2022/08/04 06:01:37;;;;;;;;;;;21.20;99.90;;;;;;5041846;28;19921;-71
2022/08/04 06:04:03;;;;;;;;;;;21.20;99.90;;;;;;5038396;28;19962;-72
2022/08/04 06:06:28;;;;;;;;;;;21.30;99.90;;;;;;5040798;28;19971;-73
2022/08/04 06:08:54;;;;;;;;;;;21.30;99.90;;;;;;5044757;28;19951;-79
2022/08/04 06:11:20;;;;;;;;;;;21.40;99.90;;;;;;5047450;28;19928;-80
2022/08/04 06:13:57;;;;;;;;;;;21.40;99.90;;;;;;5045931;28;19940;-72
2022/08/04 06:16:23;;;;;;;;;;;21.50;99.90;;;;;;5045014;28;19941;-73
2022/08/04 06:18:51;;;;;;;;;;;21.60;99.90;;;;;;5048669;28;20363;-72
2022/08/04 06:21:19;;;;;;;;;;;21.60;99.90;;;;;;5023500;28;20025;-72
2022/08/04 06:23:45;;;;;;;;;;;21.70;99.90;;;;;;5048256;28;19913;-72
2022/08/04 06:26:17;;;;;;;;;;;21.70;99.90;;;;;;5037046;28;19914;-74
2022/08/04 06:28:43;;;;;;;;;;;21.80;99.90;;;;;;5042647;28;19913;-72
2022/08/04 06:31:09;;;;;;;;;;;21.80;99.90;;;;;;5039093;28;19951;-72
2022/08/04 06:33:36;;;;;;;;;;;21.90;99.90;;;;;;5042296;28;19917;-72
2022/08/04 06:36:04;;;;;;;;;;;22.00;99.90;;;;;;5040111;28;19925;-73
2022/08/04 06:38:30;;;;;;;;;;;22.10;99.90;;;;;;5044836;28;20086;-72
2022/08/04 06:41:00;;;;;;;;;;;22.10;99.90;;;;;;5051294;28;19916;-72
2022/08/04 06:43:26;;;;;;;;;;;22.10;99.90;;;;;;5039400;28;19960;-72
2022/08/04 06:45:53;;;;;;;;;;;22.20;99.90;;;;;;5043781;28;19944;-72
2022/08/04 06:48:19;;;;;;;;;;;22.20;99.90;;;;;;5049213;28;19932;-72
2022/08/04 06:50:46;;;;;;;;;;;22.20;99.90;;;;;;5048771;28;19914;-72
2022/08/04 06:53:12;;;;;;;;;;;22.30;99.90;;;;;;5035659;28;20269;-72
2022/08/04 06:55:39;;;;;;;;;;;22.30;99.90;;;;;;5035888;28;20015;-73
2022/08/04 06:58:05;;;;;;;;;;;22.30;99.90;;;;;;5039956;28;19965;-72
2022/08/04 07:00:31;;;;;;;;;;;22.40;99.90;;;;;;5046040;28;19960;-73
2022/08/04 07:02:57;;;;;;;;;;;22.40;99.90;;;;;;5050264;28;20338;-73
2022/08/04 07:05:22;;;;;;;;;;;22.30;99.90;;;;;;5035490;28;19920;-72
2022/08/04 07:07:48;;;;;;;;;;;22.30;99.90;;;;;;5034955;28;19921;-72
2022/08/04 07:10:14;;;;;;;;;;;22.30;99.90;;;;;;5036575;28;20200;-73
2022/08/04 07:12:40;;;;;;;;;;;22.30;99.90;;;;;;5038081;28;19921;-73
2022/08/04 07:15:07;;;;;;;;;;;22.40;99.90;;;;;;5048977;28;19966;-73
2022/08/04 07:17:33;;;;;;;;;;;22.40;99.90;;;;;;5044583;28;19929;-73
2022/08/04 07:19:59;;;;;;;;;;;22.50;99.90;;;;;;5038822;28;19967;-73
2022/08/04 07:22:26;;;;;;;;;;;22.40;99.90;;;;;;5041090;28;20339;-72
2022/08/04 07:24:55;;;;;;;;;;;22.50;99.90;;;;;;5039620;28;19913;-72
2022/08/04 07:27:20;;;;;;;;;;;22.60;99.90;;;;;;5035699;28;19921;-72
2022/08/04 07:29:47;;;;;;;;;;;22.60;99.90;;;;;;5032632;28;19913;-73
2022/08/04 07:32:13;;;;;;;;;;;22.60;99.90;;;;;;5038493;28;19955;-72
2022/08/04 07:34:39;;;;;;;;;;;22.70;99.90;;;;;;5035562;28;19921;-72
2022/08/04 07:37:05;;;;;;;;;;;22.70;99.90;;;;;;5047789;28;20798;-73
2022/08/04 07:39:31;;;;;;;;;;;22.80;99.90;;;;;;5029830;28;19925;-76
2022/08/04 07:41:58;;;;;;;;;;;22.90;99.90;;;;;;5039756;28;19920;-73
2022/08/04 07:44:24;;;;;;;;;;;23.00;99.90;;;;;;5039792;28;20296;-73
2022/08/04 07:46:49;;;;;;;;;;;23.10;99.90;;;;;;5046779;28;19979;-73
2022/08/04 07:49:15;;;;;;;;;;;23.10;99.90;;;;;;5058978;28;19965;-73
2022/08/04 07:51:41;;;;;;;;;;;23.30;99.90;;;;;;5036451;28;19916;-73
2022/08/04 07:54:08;;;;;;;;;;;23.40;99.90;;;;;;5033499;28;19927;-81
2022/08/04 07:56:35;;;;;;;;;;;23.60;99.90;;;;;;5036272;28;20296;-72
2022/08/04 07:59:01;;;;;;;;;;;23.80;99.90;;;;;;5031495;28;20492;-73
2022/08/04 08:01:27;;;;;;;;;;;24.00;99.90;;;;;;5031195;28;20209;-73
2022/08/04 08:03:54;;;;;;;;;;;24.20;99.90;;;;;;5032579;28;19912;-83
2022/08/04 08:06:20;;;;;;;;;;;24.40;99.90;;;;;;5035537;28;19966;-72
2022/08/04 08:08:45;;;;;;;;;;;24.50;99.90;;;;;;5032399;28;20015;-73
2022/08/04 08:11:11;;;;;;;;;;;24.50;99.90;;;;;;5039631;28;19913;-72
2022/08/04 08:13:37;;;;;;;;;;;24.50;99.90;;;;;;5044300;28;19913;-72
2022/08/04 08:16:03;;;;;;;;;;;24.70;99.90;;;;;;5044090;28;19923;-73
2022/08/04 08:18:30;;;;;;;;;;;24.90;99.90;;;;;;5017315;28;20020;-72
2022/08/04 08:20:56;;;;;;;;;;;24.90;99.90;;;;;;5029903;28;20304;-72
2022/08/04 08:23:21;;;;;;;;;;;24.90;99.90;;;;;;5034474;28;19921;-72
2022/08/04 08:25:47;;;;;;;;;;;24.90;99.90;;;;;;5034457;28;19910;-73
2022/08/04 08:28:14;;;;;;;;;;;25.00;99.90;;;;;;5034303;28;19917;-73
2022/08/04 08:30:40;;;;;;;;;;;25.10;99.90;;;;;;5035587;28;20012;-73
2022/08/04 08:33:08;;;;;;;;;;;25.20;99.90;;;;;;5025043;28;20348;-72
2022/08/04 08:35:39;;;;;;;;;;;25.20;99.90;;;;;;5034625;28;19913;-72
2022/08/04 08:38:05;;;;;;;;;;;25.30;99.90;;;;;;5046780;28;19913;-81
2022/08/04 08:40:40;;;;;;;;;;;25.50;99.90;;;;;;5032891;28;19921;-73
2022/08/04 08:43:17;;;;;;;;;;;25.80;99.90;;;;;;5033754;28;19997;-73
2022/08/04 08:45:45;;;;;;;;;;;26.00;99.90;;;;;;5034455;28;19913;-74
2022/08/04 08:48:32;;;;;;;;;;;26.00;99.90;;;;;;5032527;28;19921;-73
2022/08/04 08:51:06;;;;;;;;;;;26.00;99.90;;;;;;5044769;28;19913;-72
2022/08/04 08:53:54;;;;;;;;;;;26.10;99.90;;;;;;5036934;28;19920;-74
2022/08/04 08:56:31;;;;;;;;;;;26.20;99.90;;;;;;5032971;28;20033;-79
2022/08/04 08:59:29;;;;;;;;;;;26.40;99.90;;;;;;5033259;28;20272;-73
2022/08/04 09:01:58;;;;;;;;;;;26.50;99.90;;;;;;5000082;28;19909;-72
2022/08/04 09:04:42;;;;;;;;;;;26.60;99.90;;;;;;5037853;28;19913;-72
2022/08/04 09:07:36;;;;;;;;;;;26.80;99.90;;;;;;5037042;28;19913;-73
2022/08/04 09:10:02;;;;;;;;;;;26.90;99.90;;;;;;5034180;28;20392;-72
2022/08/04 09:12:45;;;;;;;;;;;27.00;99.90;;;;;;5038397;28;19916;-72
2022/08/04 09:15:16;;;;;;;;;;;26.80;99.90;;;;;;5037905;28;19921;-72
2022/08/04 09:17:46;;;;;;;;;;;26.70;99.90;;;;;;5037772;28;19921;-73
2022/08/04 09:20:16;;;;;;;;;;;26.80;99.90;;;;;;5036521;28;19917;-72
2022/08/04 09:23:05;;;;;;;;;;;26.80;99.90;;;;;;5037733;28;19909;-72
2022/08/04 09:25:37;;;;;;;;;;;26.80;99.90;;;;;;5034052;28;20316;-73
2022/08/04 09:28:08;;;;;;;;;;;26.90;99.90;;;;;;5035270;28;19909;-72
2022/08/04 09:30:34;;;;;;;;;;;27.00;99.90;;;;;;5037442;28;19967;-73
2022/08/04 09:33:08;;;;;;;;;;;27.00;99.90;;;;;;5037425;28;19948;-73
2022/08/04 09:35:39;;;;;;;;;;;27.20;99.90;;;;;;5028928;28;19918;-73
2022/08/04 09:38:25;;;;;;;;;;;27.20;99.90;;;;;;5037255;28;19919;-73
2022/08/04 09:40:55;;;;;;;;;;;27.10;99.90;;;;;;5036687;28;19921;-72
2022/08/04 09:43:47;;;;;;;;;;;27.20;99.90;;;;;;5034591;28;19927;-80
2022/08/04 09:46:18;;;;;;;;;;;26.90;99.40;;;;;;5028963;28;19920;-73
2022/08/04 09:48:44;;;;;;;;;;;26.80;99.90;;;;;;5037322;28;19910;-73
2022/08/04 09:51:15;;;;;;;;;;;26.60;99.90;;;;;;5036410;28;20295;-73
2022/08/04 09:53:59;;;;;;;;;;;26.50;99.90;;;;;;5036062;28;19975;-73
2022/08/04 09:56:29;;;;;;;;;;;26.50;99.90;;;;;;5035092;28;20004;-72
2022/08/04 09:58:58;;;;;;;;;;;26.40;99.90;;;;;;5036900;28;20283;-73
2022/08/04 10:01:24;;;;;;;;;;;26.30;99.90;;;;;;5037328;28;19913;-73
2022/08/04 10:03:52;;;;;;;;;;;26.30;99.90;;;;;;5036590;28;19944;-73
2022/08/04 10:06:20;;;;;;;;;;;26.20;99.90;;;;;;5034305;28;20223;-74
2022/08/04 10:08:57;;;;;;;;;;;26.10;99.90;;;;;;5036553;28;19913;-85
2022/08/04 10:11:36;;;;;;;;;;;26.10;99.90;;;;;;5031181;28;19921;-84
2022/08/04 10:14:09;;;;;;;;;;;25.90;99.90;;;;;;5032969;28;19975;-73
2022/08/04 10:16:40;;;;;;;;;;;25.90;99.90;;;;;;5031267;28;20312;-72
2022/08/04 10:19:06;;;;;;;;;;;25.80;99.90;;;;;;5033051;28;19920;-72
2022/08/04 10:21:35;;;;;;;;;;;25.80;99.90;;;;;;5033315;28;20016;-73
2022/08/04 10:24:21;;;;;;;;;;;25.70;99.90;;;;;;5033581;28;19918;-72
2022/08/04 10:26:54;;;;;;;;;;;25.60;99.90;;;;;;5022242;28;20434;-72
2022/08/04 10:29:25;;;;;;;;;;;25.50;99.90;;;;;;5048493;28;20020;-78
2022/08/04 10:31:58;;;;;;;;;;;25.60;99.90;;;;;;5047359;28;19917;-71
2022/08/04 10:34:30;;;;;;;;;;;25.60;99.90;;;;;;5035485;28;19913;-72
2022/08/04 10:37:08;;;;;;;;;;;25.70;99.90;;;;;;5041928;28;19917;-72
2022/08/04 10:42:44;;;;;;;;;;;25.80;99.90;;;;;;5038698;28;19935;-71
2022/08/04 10:45:09;;;;;;;;;;;25.70;99.90;;;;;;5044706;28;19917;-72
2022/08/04 10:47:40;;;;;;;;;;;25.80;99.90;;;;;;5031894;28;19940;-72
2022/08/04 10:50:09;;;;;;;;;;;25.80;99.90;;;;;;5040089;28;19925;-71
2022/08/04 10:53:10;;;;;;;;;;;25.90;99.90;;;;;;5037499;28;19962;-72
2022/08/04 10:55:39;;;;;;;;;;;25.90;99.90;;;;;;4990539;28;19914;-74
2022/08/04 10:58:07;;;;;;;;;;;26.00;99.90;;;;;;4986727;28;19939;-78
2022/08/04 11:00:34;;;;;;;;;;;26.10;99.90;;;;;;4991058;28;20044;-72
2022/08/04 11:03:02;;;;;;;;;;;26.10;99.90;;;;;;4989911;28;20009;-72
2022/08/04 11:05:38;;;;;;;;;;;26.10;99.90;;;;;;4969358;28;20533;-73
2022/08/04 11:08:13;;;;;;;;;;;26.10;99.90;;;;;;4990251;28;20283;-73
2022/08/04 11:10:54;;;;;;;;;;;26.00;99.90;;;;;;4990052;28;19988;-73
2022/08/04 11:13:23;;;;;;;;;;;25.80;99.90;;;;;;4989350;28;19920;-73
2022/08/04 11:15:51;;;;;;;;;;;25.70;99.90;;;;;;4973562;28;20020;-73
2022/08/04 11:18:33;;;;;;;;;;;25.70;99.90;;;;;;4990259;28;20332;-85
2022/08/04 11:21:01;;;;;;;;;;;25.60;99.90;;;;;;4989686;28;19913;-74
2022/08/04 11:23:33;;;;;;;;;;;25.60;99.90;;;;;;4990121;28;19956;-73
2022/08/04 11:25:58;;;;;;;;;;;25.70;99.90;;;;;;4972992;28;19918;-73
2022/08/04 11:28:25;;;;;;;;;;;25.80;99.90;;;;;;4990241;28;19921;-73
2022/08/04 11:31:01;;;;;;;;;;;26.10;99.90;;;;;;5031536;28;20294;-73
2022/08/04 11:33:27;;;;;;;;;;;26.40;99.90;;;;;;5032992;28;19913;-73
2022/08/04 11:36:02;;;;;;;;;;;26.80;99.90;;;;;;5034602;28;19924;-72
2022/08/04 11:38:32;;;;;;;;;;;27.00;99.40;;;;;;5037541;28;20553;-85
2022/08/04 11:41:00;;;;;;;;;;;27.50;99.90;;;;;;5035045;28;19909;-71
2022/08/04 11:43:32;;;;;;;;;;;28.00;99.90;;;;;;5027918;28;19991;-80
2022/08/04 11:46:02;;;;;;;;;;;28.50;97.90;;;;;;5032088;28;20326;-73
2022/08/04 11:48:44;;;;;;;;;;;29.00;96.90;;;;;;5030465;28;19917;-73
2022/08/04 11:51:10;;;;;;;;;;;29.30;96.20;;;;;;5036742;28;19919;-73
2022/08/04 11:53:37;;;;;;;;;;;29.20;96.00;;;;;;5030507;28;20331;-72
2022/08/04 11:56:04;;;;;;;;;;;29.40;96.80;;;;;;5035436;28;19917;-73
2022/08/04 11:58:31;;;;;;;;;;;29.60;96.80;;;;;;5040537;28;19921;-73
2022/08/04 12:01:02;;;;;;;;;;;30.00;96.20;;;;;;5036731;28;19917;-80
2022/08/04 12:03:35;;;;;;;;;;;30.40;95.90;;;;;;5029196;28;20040;-73
2022/08/04 12:06:24;;;;;;;;;;;30.70;94.80;;;;;;5026367;28;19924;-73
2022/08/04 12:09:06;;;;;;;;;;;30.80;95.00;;;;;;5042284;28;19913;-73
2022/08/04 12:11:50;;;;;;;;;;;30.70;93.60;;;;;;5045162;28;19913;-73
2022/08/04 12:14:19;;;;;;;;;;;30.50;94.90;;;;;;5042796;28;19912;-72
2022/08/04 12:16:51;;;;;;;;;;;30.30;94.10;;;;;;5050743;28;20311;-71
2022/08/04 12:19:22;;;;;;;;;;;30.20;93.70;;;;;;5029272;28;20236;-72
2022/08/04 12:21:50;;;;;;;;;;;30.00;94.00;;;;;;5031468;28;19916;-72
2022/08/04 12:24:20;;;;;;;;;;;29.60;94.40;;;;;;5029720;28;20019;-73
2022/08/04 12:26:50;;;;;;;;;;;29.60;94.40;;;;;;5027811;28;20336;-74
2022/08/04 12:29:17;;;;;;;;;;;29.70;94.70;;;;;;5023893;28;20331;-72
2022/08/04 12:31:48;;;;;;;;;;;29.80;96.00;;;;;;5033866;28;20208;-74
2022/08/04 12:34:31;;;;;;;;;;;29.60;94.00;;;;;;5034786;28;20001;-73
2022/08/04 12:36:56;;;;;;;;;;;29.40;94.90;;;;;;5032413;28;19910;-72
2022/08/04 12:39:24;;;;;;;;;;;29.50;94.40;;;;;;5032394;28;19924;-73
2022/08/04 12:42:05;;;;;;;;;;;29.20;94.90;;;;;;5032979;28;20311;-72
2022/08/04 12:44:32;;;;;;;;;;;29.00;94.10;;;;;;5034211;28;20316;-78
2022/08/04 12:46:59;;;;;;;;;;;28.80;95.10;;;;;;5033919;28;20535;-71
2022/08/04 12:49:24;;;;;;;;;;;28.90;95.60;;;;;;5034051;28;19948;-72
2022/08/04 12:51:51;;;;;;;;;;;28.70;95.10;;;;;;5033621;28;20011;-72
2022/08/04 12:54:22;;;;;;;;;;;28.60;93.90;;;;;;5032540;28;19909;-74
2022/08/04 12:56:48;;;;;;;;;;;28.40;94.50;;;;;;5030882;28;20366;-72
2022/08/04 12:59:14;;;;;;;;;;;28.20;95.20;;;;;;5031848;28;20220;-83
2022/08/04 13:01:45;;;;;;;;;;;28.30;95.50;;;;;;5034144;28;19909;-72
2022/08/04 13:04:17;;;;;;;;;;;28.50;96.00;;;;;;5034125;28;19956;-72
2022/08/04 13:06:43;;;;;;;;;;;28.70;94.40;;;;;;5033534;28;20312;-72
2022/08/04 13:09:16;;;;;;;;;;;29.00;95.90;;;;;;5032676;28;19913;-72
2022/08/04 13:11:45;;;;;;;;;;;29.00;93.80;;;;;;5033648;28;20304;-72
2022/08/04 13:14:12;;;;;;;;;;;29.00;94.50;;;;;;5033938;28;19917;-74
2022/08/04 13:16:37;;;;;;;;;;;29.00;94.50;;;;;;5034088;28;20255;-74
2022/08/04 13:19:06;;;;;;;;;;;28.90;95.40;;;;;;5032788;28;19928;-72
2022/08/04 13:21:31;;;;;;;;;;;28.50;94.10;;;;;;5034342;28;19909;-72
2022/08/04 13:24:02;;;;;;;;;;;28.40;95.00;;;;;;5034161;28;20209;-82
2022/08/04 13:26:28;;;;;;;;;;;28.20;95.00;;;;;;5023294;28;19920;-71
2022/08/04 13:28:58;;;;;;;;;;;28.30;96.00;;;;;;5033795;28;20216;-72
2022/08/04 13:31:26;;;;;;;;;;;28.40;95.50;;;;;;5048903;28;19917;-72
2022/08/04 13:33:53;;;;;;;;;;;28.60;94.60;;;;;;5043021;28;19920;-71
2022/08/04 13:36:23;;;;;;;;;;;28.40;94.30;;;;;;5044593;28;19917;-72
2022/08/04 13:39:01;;;;;;;;;;;28.30;95.40;;;;;;5030734;28;20255;-73
2022/08/04 13:41:27;;;;;;;;;;;28.30;95.70;;;;;;5033678;28;19909;-72
2022/08/04 13:43:57;;;;;;;;;;;28.30;95.40;;;;;;5033855;28;19917;-72
2022/08/04 13:46:28;;;;;;;;;;;27.90;94.80;;;;;;5032575;28;20201;-71
2022/08/04 13:48:55;;;;;;;;;;;27.80;95.60;;;;;;5034702;28;20021;-73
2022/08/04 13:51:21;;;;;;;;;;;27.70;95.20;;;;;;5037550;28;19913;-72
2022/08/04 13:53:54;;;;;;;;;;;27.40;95.60;;;;;;5035711;28;19948;-72
2022/08/04 13:56:21;;;;;;;;;;;27.40;95.40;;;;;;5036370;28;19909;-72
2022/08/04 13:58:47;;;;;;;;;;;27.70;96.70;;;;;;5032890;28;19925;-71
2022/08/04 14:01:20;;;;;;;;;;;27.50;96.00;;;;;;5037289;28;19943;-72
2022/08/04 14:03:49;;;;;;;;;;;27.30;95.90;;;;;;5037206;28;20240;-72
2022/08/04 14:06:17;;;;;;;;;;;27.20;95.60;;;;;;5037478;28;20004;-73
2022/08/04 14:08:50;;;;;;;;;;;27.30;96.10;;;;;;5034056;28;19913;-72
2022/08/04 14:11:17;;;;;;;;;;;26.80;95.80;;;;;;5037338;28;20209;-72
2022/08/04 14:13:42;;;;;;;;;;;26.40;95.70;;;;;;5037011;28;19943;-71
2022/08/04 14:16:19;;;;;;;;;;;26.30;96.40;;;;;;5036896;28;20331;-78
2022/08/04 14:18:45;;;;;;;;;;;26.20;98.30;;;;;;5035392;28;19959;-71
2022/08/04 14:21:11;;;;;;;;;;;26.10;97.10;;;;;;5036395;28;19956;-71
2022/08/04 14:23:39;;;;;;;;;;;26.00;98.40;;;;;;5036909;28;19909;-71
2022/08/04 14:26:14;;;;;;;;;;;25.80;97.10;;;;;;5036395;28;19924;-71
2022/08/04 14:28:40;;;;;;;;;;;25.70;97.50;;;;;;5036583;28;19920;-73
2022/08/04 14:31:16;;;;;;;;;;;25.70;96.60;;;;;;5036265;28;19913;-71
2022/08/04 14:33:44;;;;;;;;;;;25.70;97.10;;;;;;5037125;28;20289;-70
2022/08/04 14:36:10;;;;;;;;;;;25.80;98.10;;;;;;5036110;28;20285;-71
2022/08/04 14:38:45;;;;;;;;;;;26.00;97.60;;;;;;5036245;28;19928;-71
2022/08/04 14:41:11;;;;;;;;;;;26.00;97.30;;;;;;5036238;28;19913;-72
2022/08/04 14:43:40;;;;;;;;;;;26.00;97.90;;;;;;5036652;28;19909;-71
2022/08/04 14:46:06;;;;;;;;;;;26.10;98.40;;;;;;5036589;28;19955;-71